createdAt,value
2023-02-06T00:00:34.254Z,65.70
2023-02-06T00:04:37.401Z,65.56
2023-02-06T00:08:40.620Z,65.16
2023-02-06T00:12:45.347Z,64.91
2023-02-06T00:16:48.979Z,64.55
2023-02-06T00:20:51.890Z,63.83
2023-02-06T00:24:55.095Z,64.03
2023-02-06T00:28:59.518Z,64.43
2023-02-06T00:33:02.692Z,64.51
2023-02-06T00:37:06.169Z,64.00
2023-02-06T00:41:09.300Z,64.06
2023-02-06T00:45:13.912Z,64.30
2023-02-06T00:49:17.544Z,64.50
2023-02-06T00:53:20.476Z,64.59
2023-02-06T00:57:23.681Z,63.76
2023-02-06T01:01:28.750Z,64.26
2023-02-06T01:05:32.160Z,63.67
2023-02-06T01:09:36.023Z,63.92
2023-02-06T01:13:39.357Z,63.85
2023-02-06T01:17:44.158Z,64.40
2023-02-06T01:21:47.566Z,65.08
2023-02-06T01:25:50.442Z,64.75
2023-02-06T01:29:53.754Z,63.96
2023-02-06T01:34:00.594Z,64.72
2023-02-06T01:38:03.480Z,64.43
2023-02-06T01:42:07.272Z,65.30
2023-02-06T01:46:10.946Z,65.10
2023-02-06T01:50:17.672Z,64.86
2023-02-06T01:54:21.520Z,65.26
2023-02-06T01:58:31.321Z,65.17
2023-02-06T02:02:35.951Z,65.50
2023-02-06T02:06:42.291Z,65.79
2023-02-06T02:10:46.075Z,64.93
2023-02-06T02:14:51.675Z,65.83
2023-02-06T02:19:14.348Z,65.06
2023-02-06T02:23:41.772Z,65.39
2023-02-06T02:28:01.888Z,66.02
2023-02-06T02:32:27.897Z,66.05
2023-02-06T02:36:36.158Z,65.96
2023-02-06T02:40:49.249Z,66.00
2023-02-06T02:44:56.929Z,65.59
2023-02-06T02:49:06.130Z,65.51
2023-02-06T02:53:11.006Z,66.02
2023-02-06T02:57:18.532Z,65.99
2023-02-06T03:01:24.308Z,66.75
2023-02-06T03:05:28.868Z,66.15
2023-02-06T03:09:46.286Z,66.32
2023-02-06T03:13:55.571Z,67.10
2023-02-06T03:18:05.448Z,67.30
2023-02-06T03:22:08.829Z,67.17
2023-02-06T03:26:17.421Z,67.36
2023-02-06T03:30:25.004Z,67.48
2023-02-06T03:34:36.890Z,66.86
2023-02-06T03:38:39.869Z,68.00
2023-02-06T03:42:52.188Z,67.22
2023-02-06T03:46:57.330Z,68.25
2023-02-06T03:51:04.068Z,68.19
2023-02-06T03:55:12.694Z,66.76
2023-02-06T03:59:17.715Z,66.70
2023-02-06T04:03:23.190Z,67.24
2023-02-06T04:07:28.702Z,67.01
2023-02-06T04:11:31.833Z,66.96
2023-02-06T04:15:36.376Z,67.54
2023-02-06T04:19:40.746Z,67.50
2023-02-06T04:23:44.066Z,67.06
2023-02-06T04:27:46.995Z,67.51
2023-02-06T04:31:51.494Z,66.95
2023-02-06T04:35:54.902Z,67.60
2023-02-06T04:39:57.773Z,67.20
2023-02-06T04:44:01.205Z,66.98
2023-02-06T04:48:06.067Z,67.14
2023-02-06T04:52:09.427Z,67.78
2023-02-06T04:56:13.893Z,67.69
2023-02-06T05:00:17.931Z,67.28
2023-02-06T05:04:22.173Z,67.37
2023-02-06T05:08:25.596Z,67.26
2023-02-06T05:12:29.463Z,67.51
2023-02-06T05:16:34.038Z,67.33
2023-02-06T05:20:38.298Z,67.05
2023-02-06T05:24:41.471Z,67.73
2023-02-06T05:28:45.092Z,67.28
2023-02-06T05:32:48.349Z,67.21
2023-02-06T05:36:52.749Z,67.43
2023-02-06T05:40:55.835Z,67.72
2023-02-06T05:45:00.321Z,67.70
2023-02-06T05:49:03.606Z,67.95
2023-02-06T05:53:08.106Z,67.25
2023-02-06T05:57:11.647Z,67.52
2023-02-06T06:01:15.263Z,68.01
2023-02-06T06:05:18.578Z,67.35
2023-02-06T06:09:23.427Z,67.23
2023-02-06T06:13:26.794Z,67.43
2023-02-06T06:17:30.056Z,67.96
2023-02-06T06:21:34.348Z,68.17
2023-02-06T06:25:39.283Z,68.21
2023-02-06T06:29:42.315Z,68.29
2023-02-06T06:33:45.842Z,68.35
2023-02-06T06:37:48.967Z,68.06
2023-02-06T06:41:53.973Z,67.95
2023-02-06T06:45:57.098Z,67.51
2023-02-06T06:50:00.399Z,67.08
2023-02-06T06:54:34.050Z,68.18
2023-02-06T06:58:39.059Z,68.43
2023-02-06T07:02:42.740Z,68.42
2023-02-06T07:06:45.857Z,68.20
2023-02-06T07:10:49.322Z,67.57
2023-02-06T07:14:53.761Z,67.70
2023-02-06T07:18:57.023Z,67.42
2023-02-06T07:23:01.795Z,67.57
2023-02-06T07:27:05.099Z,67.18
2023-02-06T07:31:10.222Z,67.63
2023-02-06T07:35:15.637Z,67.14
2023-02-06T07:39:18.813Z,66.79
2023-02-06T07:43:21.844Z,67.04
2023-02-06T07:47:26.524Z,66.61
2023-02-06T07:51:30.207Z,66.01
2023-02-06T07:55:33.455Z,65.76
2023-02-06T07:59:36.898Z,65.71
2023-02-06T08:03:41.891Z,64.62
2023-02-06T08:07:44.746Z,62.66
2023-02-06T08:11:48.082Z,62.27
2023-02-06T08:15:51.045Z,60.79
2023-02-06T08:19:55.880Z,59.96
2023-02-06T08:24:00.375Z,59.71
2023-02-06T08:28:03.297Z,60.01
2023-02-06T08:32:06.225Z,59.92
2023-02-06T08:36:12.341Z,60.00
2023-02-06T08:40:15.214Z,59.71
2023-02-06T08:44:19.938Z,59.29
2023-02-06T08:48:23.384Z,58.01
2023-02-06T08:52:28.396Z,57.94
2023-02-06T08:56:33.456Z,57.04
2023-02-06T09:00:36.847Z,56.88
2023-02-06T09:04:40.528Z,57.14
2023-02-06T09:08:44.991Z,57.11
2023-02-06T09:12:48.499Z,57.00
2023-02-06T09:16:51.941Z,58.04
2023-02-06T09:21:05.097Z,58.37
2023-02-06T09:25:10.457Z,58.44
2023-02-06T09:29:13.792Z,57.18
2023-02-06T09:33:17.100Z,56.63
2023-02-06T09:37:20.079Z,57.15
2023-02-06T09:41:31.814Z,57.61
2023-02-06T09:45:35.345Z,56.26
2023-02-06T09:49:44.863Z,56.76
2023-02-06T09:53:56.790Z,55.14
2023-02-06T09:58:08.620Z,56.18
2023-02-06T10:02:33.357Z,56.22
2023-02-06T10:06:44.449Z,53.33
2023-02-06T10:10:52.272Z,49.88
2023-02-06T10:15:01.998Z,51.86
2023-02-06T10:19:11.247Z,51.64
2023-02-06T10:23:20.060Z,50.50
2023-02-06T10:27:23.767Z,50.91
2023-02-06T10:31:47.944Z,52.42
2023-02-06T10:35:56.335Z,50.33
2023-02-06T10:40:29.279Z,53.98
2023-02-06T10:44:36.813Z,56.27
2023-02-06T10:48:46.639Z,51.13
2023-02-06T10:52:51.248Z,49.72
2023-02-06T10:56:56.881Z,48.04
2023-02-06T11:01:01.237Z,49.20
2023-02-06T11:05:10.396Z,49.12
2023-02-06T11:09:14.049Z,49.10
2023-02-06T11:13:24.658Z,51.13
2023-02-06T11:17:28.817Z,50.57
2023-02-06T11:22:11.337Z,54.98
2023-02-06T11:26:17.218Z,50.19
2023-02-06T11:30:30.035Z,51.04
2023-02-06T11:34:36.011Z,51.22
2023-02-06T11:38:54.823Z,51.86
2023-02-06T11:43:17.485Z,53.74
2023-02-06T11:47:28.426Z,49.04
2023-02-06T11:51:48.004Z,49.46
2023-02-06T11:56:03.676Z,49.61
2023-02-06T12:00:23.374Z,52.02
2023-02-06T12:04:30.944Z,48.86
2023-02-06T12:08:44.640Z,49.64
2023-02-06T12:12:53.573Z,49.35
2023-02-06T12:16:58.114Z,49.04
2023-02-06T12:21:06.496Z,48.46
2023-02-06T12:25:27.306Z,50.44
2023-02-06T12:29:36.912Z,48.69
2023-02-06T12:33:45.972Z,49.27
2023-02-06T12:37:55.636Z,49.50
2023-02-06T12:42:22.247Z,51.71
2023-02-06T12:46:29.245Z,48.88
2023-02-06T12:50:40.778Z,50.34
2023-02-06T12:54:49.661Z,49.79
2023-02-06T12:59:03.152Z,48.89
2023-02-06T13:03:22.038Z,51.08
2023-02-06T13:07:29.708Z,50.47
2023-02-06T13:11:39.250Z,49.45
2023-02-06T13:15:43.638Z,50.44
2023-02-06T13:20:09.130Z,53.18
2023-02-06T13:24:21.114Z,50.64
2023-02-06T13:29:05.007Z,53.31
2023-02-06T13:33:15.966Z,52.11
2023-02-06T13:37:34.666Z,53.67
2023-02-06T13:41:38.810Z,50.78
2023-02-06T13:45:47.370Z,52.07
2023-02-06T13:50:21.424Z,53.74
2023-02-06T13:54:58.927Z,54.34
2023-02-06T13:59:06.821Z,51.20
2023-02-06T14:03:17.612Z,51.66
2023-02-06T14:07:58.863Z,50.63
2023-02-06T14:12:31.031Z,48.91
2023-02-06T14:16:45.806Z,49.00
2023-02-06T14:20:58.541Z,48.83
2023-02-06T14:25:10.517Z,53.61
2023-02-06T14:29:29.352Z,51.07
2023-02-06T14:33:56.260Z,51.40
2023-02-06T14:38:23.271Z,51.64
2023-02-06T14:42:30.413Z,49.58
2023-02-06T14:46:34.891Z,51.36
2023-02-06T14:50:42.584Z,51.42
2023-02-06T14:54:46.107Z,52.40
2023-02-06T14:58:49.429Z,52.99
2023-02-06T15:03:07.322Z,53.88
2023-02-06T15:07:23.644Z,53.48
2023-02-06T15:11:33.013Z,53.70
2023-02-06T15:15:36.527Z,54.26
2023-02-06T15:19:41.573Z,54.51
2023-02-06T15:23:59.270Z,55.55
2023-02-06T15:28:05.934Z,55.71
2023-02-06T15:32:21.815Z,56.88
2023-02-06T15:36:32.336Z,56.61
2023-02-06T15:40:39.359Z,56.94
2023-02-06T15:44:43.161Z,57.25
2023-02-06T15:48:52.052Z,57.79
2023-02-06T15:52:57.354Z,57.81
2023-02-06T15:57:05.236Z,57.90
2023-02-06T16:01:15.530Z,57.88
2023-02-06T16:05:26.914Z,58.54
2023-02-06T16:09:32.138Z,58.93
2023-02-06T16:13:46.901Z,59.04
2023-02-06T16:17:49.977Z,59.49
2023-02-06T16:22:05.922Z,60.04
2023-02-06T16:26:18.336Z,60.12
2023-02-06T16:30:23.712Z,61.01
2023-02-06T16:34:37.630Z,60.66
2023-02-06T16:38:43.158Z,60.96
2023-02-06T16:42:49.502Z,61.86
2023-02-06T16:46:53.282Z,61.93
2023-02-06T16:50:56.530Z,62.10
2023-02-06T16:55:00.588Z,62.60
2023-02-06T16:59:05.102Z,63.30
2023-02-06T17:03:08.316Z,63.55
2023-02-06T17:07:15.881Z,63.95
2023-02-06T17:11:19.359Z,64.31
2023-02-06T17:15:24.186Z,64.37
2023-02-06T17:19:27.625Z,63.93
2023-02-06T17:23:30.507Z,64.24
2023-02-06T17:27:34.107Z,64.11
2023-02-06T17:31:38.669Z,64.21
2023-02-06T17:35:41.941Z,64.88
2023-02-06T17:39:44.964Z,64.74
2023-02-06T17:43:48.285Z,65.46
2023-02-06T17:47:54.136Z,65.17
2023-02-06T17:51:57.208Z,65.85
2023-02-06T17:56:05.524Z,65.93
2023-02-06T18:00:13.454Z,65.62
2023-02-06T18:04:20.493Z,66.06
2023-02-06T18:08:23.946Z,66.35
2023-02-06T18:12:27.167Z,66.35
2023-02-06T18:16:30.919Z,66.64
2023-02-06T18:20:37.194Z,67.30
2023-02-06T18:24:41.398Z,67.55
2023-02-06T18:28:45.306Z,67.88
2023-02-06T18:32:49.360Z,67.78
2023-02-06T18:36:53.799Z,67.70
2023-02-06T18:40:56.935Z,67.25
2023-02-06T18:44:59.844Z,66.86
2023-02-06T18:49:03.270Z,67.28
2023-02-06T18:53:08.025Z,67.31
2023-02-06T18:57:11.137Z,68.32
2023-02-06T19:01:16.421Z,68.03
2023-02-06T19:05:20.231Z,68.79
2023-02-06T19:09:24.969Z,68.00
2023-02-06T19:13:28.067Z,68.25
2023-02-06T19:17:31.650Z,68.34
2023-02-06T19:21:35.042Z,68.47
2023-02-06T19:25:42.295Z,68.46
2023-02-06T19:29:45.286Z,68.59
2023-02-06T19:33:48.834Z,67.94
2023-02-06T19:37:53.019Z,67.69
2023-02-06T19:41:58.223Z,67.75
2023-02-06T19:46:04.038Z,67.67
2023-02-06T19:50:08.087Z,67.85
2023-02-06T19:54:11.250Z,67.28
2023-02-06T19:58:16.305Z,67.47
2023-02-06T20:02:19.795Z,67.21
2023-02-06T20:06:23.744Z,66.88
2023-02-06T20:10:26.948Z,66.87
2023-02-06T20:14:32.117Z,66.96
2023-02-06T20:18:37.183Z,66.57
2023-02-06T20:22:41.653Z,67.33
2023-02-06T20:26:45.113Z,67.47
2023-02-06T20:30:49.985Z,67.31
2023-02-06T20:34:53.304Z,67.04
2023-02-06T20:38:58.624Z,66.82
2023-02-06T20:43:02.106Z,66.34
2023-02-06T20:47:06.514Z,66.58
2023-02-06T20:51:09.701Z,65.92
2023-02-06T20:55:13.286Z,66.94
2023-02-06T20:59:18.255Z,66.29
2023-02-06T21:03:23.451Z,66.79
2023-02-06T21:07:26.846Z,66.85
2023-02-06T21:11:31.286Z,66.37
2023-02-06T21:15:34.772Z,66.54
2023-02-06T21:19:39.490Z,67.23
2023-02-06T21:23:43.944Z,66.66
2023-02-06T21:27:47.071Z,67.42
2023-02-06T21:31:55.753Z,66.97
2023-02-06T21:36:08.538Z,66.65
2023-02-06T21:40:12.323Z,66.71
2023-02-06T21:44:15.794Z,67.32
2023-02-06T21:48:18.638Z,67.10
2023-02-06T21:52:23.462Z,66.87
2023-02-06T21:56:28.825Z,66.92
2023-02-06T22:00:31.950Z,67.27
2023-02-06T22:04:35.342Z,66.93
2023-02-06T22:08:41.714Z,67.50
2023-02-06T22:12:45.067Z,66.81
2023-02-06T22:16:48.471Z,67.05
2023-02-06T22:20:52.734Z,66.76
2023-02-06T22:24:57.269Z,66.74
2023-02-06T22:29:01.288Z,66.40
2023-02-06T22:33:04.442Z,66.52
2023-02-06T22:37:07.783Z,66.40
2023-02-06T22:41:15.978Z,66.51
2023-02-06T22:45:19.556Z,65.92
2023-02-06T22:49:24.387Z,66.01
2023-02-06T22:53:33.403Z,65.84
2023-02-06T22:57:38.290Z,65.86
2023-02-06T23:01:43.763Z,66.47
2023-02-06T23:05:47.206Z,65.85
2023-02-06T23:09:50.407Z,65.97
2023-02-06T23:13:55.967Z,65.92
2023-02-06T23:17:59.629Z,66.48
2023-02-06T23:22:02.880Z,66.37
2023-02-06T23:26:10.477Z,66.14
2023-02-06T23:30:16.126Z,65.85
2023-02-06T23:34:19.811Z,66.76
2023-02-06T23:38:23.262Z,66.43
2023-02-06T23:42:26.366Z,66.05
2023-02-06T23:46:34.936Z,66.46
2023-02-06T23:50:37.829Z,66.01
2023-02-06T23:54:41.275Z,66.87
2023-02-06T23:58:45.105Z,66.17
